Weather observations for the past three days for
Kennett - Kennett Memorial Airport
Imperial (Metric)
Date Time (cdt) Wind (mph) Vis. (mi.) Weather Sky Cond. Temperature (ºF) Relative Humidity Wind Chill (°F) Heat Index (°F) Pressure Precipitation (in)
Air Dwpt 6 hour altimeter (in) sea level (mb) 1 hr 3 hr 6 hr
Max. Min.
10 17:35 N 13 G 18 10.00 Fair CLR 73.4 48.2 41% 30.02 0.0
10 17:15 N 14 G 22 10.00 Fair CLR 73.4 50 44% 30.02 0.0
10 16:55 N 17 G 23 10.00 Fair CLR 75.2 50 41% 78 30.02 0.0
10 16:35 N 20 10.00 Fair CLR 75.2 51.8 44% 78 30 0.0
10 16:15 N 16 10.00 Fair CLR 75.2 51.8 44% 78 30 0.0
10 15:55 N 15 10.00 Fair CLR 77 53.6 44% 78 30.01 0.0
10 15:35 N 14 10.00 Fair CLR 77 55.4 47% 79 30.01 0.0
10 15:15 NE 12 G 17 10.00 Fair CLR 78.8 57.2 48% 80 30.01 0.0
10 14:55 N 12 10.00 Fair CLR 78.8 57.2 48% 80 30 0.0
10 14:35 N 13 G 18 10.00 Fair CLR 78.8 57.2 48% 80 30.01 0.0
10 14:15 NE 13 10.00 Fair CLR 78.8 60.8 54% 80 30.01 0.0
10 13:55 NE 9 10.00 Fair CLR 78.8 60.8 54% 80 30.02 0.0
10 13:35 NE 12 G 17 10.00 Fair CLR 80.6 60.8 51% 81 30.01 0.0
10 13:15 N 8 G 17 10.00 Fair CLR 80.6 60.8 51% 81 30.01 0.0
10 12:55 Vrbl 7 G 17 10.00 Fair CLR 80.6 59 48% 81 30.01 0.0
10 12:35 NE 8 G 15 10.00 Fair CLR 80.6 59 48% 81 30.01 0.0
10 12:15 NE 12 10.00 Fair CLR 80.6 59 48% 81 30.01 0.0
10 11:55 N 8 9.00 Fair CLR 80.6 60.8 51% 81 30.01 0.0
10 11:35 Vrbl 6 G 13 9.00 Fair CLR 78.8 59 51% 80 30.02 0.0
10 11:15 Vrbl 7 9.00 Fair CLR 78.8 59 51% 80 30.01 0.0
10 10:55 Calm 10.00 Fair CLR 77 57.2 51% 79 30.01 0.0
10 10:35 Vrbl 3 9.00 Fair CLR 77 57.2 51% 79 30.01 0.0
10 10:15 SW 3 10.00 Fair CLR 77 55.4 47% 79 30.01 0.0
10 09:55 Calm 10.00 Fair CLR 75.2 53.6 47% 78 30 0.0
10 09:35 Calm 10.00 Fair CLR 75.2 53.6 47% 78 29.99 0.0
10 09:15 Calm 10.00 Fair CLR 73.4 55.4 53% 29.99 0.0
10 08:55 Calm 10.00 Fair CLR 71.6 55.4 57% 29.99 0.0
10 08:35 Calm 10.00 Fair CLR 69.8 60.8 73% 29.99 0.0
10 08:15 Calm 10.00 Fair CLR 68 64.4 88% 29.99 0.0
10 07:55 SE 3 10.00 Fair CLR 66.2 64.4 94% 29.98 0.0
10 07:35 Calm 9.00 Fair CLR 64.4 62.6 94% 29.99 0.0
10 07:15 S 3 10.00 Fair CLR 60.8 60.8 100% 29.98 0.0
10 06:55 Calm 9.00 Fair CLR 60.8 60.8 100% 29.98 0.0
10 06:35 Calm 10.00 Fair CLR 59 59 100% 29.97 0.0
10 06:15 Calm 10.00 Fair CLR 59 59 100% 29.96 0.0
10 05:55 N 6 10.00 Fair CLR 59 59 100% 29.95 0.0
10 05:35 N 8 10.00 Fair CLR 55.4 55.4 100% 29.94 0.0
10 05:15 Calm 10.00 Fair CLR 55.4 55.4 100% 29.93 0.0
10 04:55 Calm 10.00 Fair CLR 55.4 55.4 100% 29.92 0.0
10 04:35 Calm 10.00 Fair CLR 55.4 55.4 100% 29.92 0.0
10 04:15 Calm 10.00 Fair CLR 57.2 57.2 100% 29.91 0.0
10 03:55 S 5 10.00 Fair CLR 59 59 100% 29.9 0.0
10 03:35 S 3 10.00 Fair CLR 59 59 100% 29.89 0.0
10 03:15 SW 3 10.00 Fair CLR 59 59 100% 29.9 0.0
10 02:55 Calm 10.00 Fair CLR 60.8 59 94% 29.89 0.0
10 02:35 Calm 10.00 Fair CLR 59 57.2 94% 29.89 0.0
10 02:15 SW 3 10.00 Fair CLR 62.6 57.2 83% 29.89 0.0
10 01:55 SW 6 10.00 Fair CLR 62.6 55.4 77% 29.9 0.0
10 01:35 SW 5 10.00 Fair CLR 62.6 55.4 77% 29.9 0.0
10 01:15 W 6 10.00 Fair CLR 64.4 55.4 73% 29.9 0.0
10 00:55 SW 5 10.00 Fair CLR 62.6 55.4 77% 29.89 0.0
10 00:35 S 5 10.00 Fair CLR 64.4 53.6 68% 29.9 0.0
10 00:15 SW 5 10.00 Fair CLR 64.4 53.6 68% 29.89 0.0
09 23:55 SW 5 10.00 Fair CLR 66.2 51.8 60% 29.88 0.0
09 23:35 SW 5 10.00 Fair CLR 66.2 51.8 60% 29.88 0.0
09 23:15 SW 5 10.00 Fair CLR 66.2 50 56% 29.88 0.0
09 22:55 SW 5 10.00 Fair CLR 68 48.2 49% 29.88 0.0
09 22:35 S 7 10.00 Fair CLR 68 48.2 49% 29.88 0.0
09 22:15 S 8 10.00 Fair CLR 69.8 48.2 46% 29.88 0.0
09 21:55 S 8 10.00 Fair CLR 69.8 48.2 46% 29.88 0.0
09 21:35 S 8 10.00 Fair CLR 68 48.2 49% 29.87 0.0
09 21:15 S 7 10.00 Fair CLR 69.8 50 50% 29.86 0.0
09 20:55 S 6 10.00 Fair CLR 69.8 50 50% 29.85 0.0
09 20:35 SW 5 10.00 Fair CLR 71.6 51.8 50% 29.85 0.0
09 20:15 SW 5 10.00 Fair CLR 73.4 50 44% 29.84 0.0
09 19:55 Calm 10.00 Fair CLR 77 44.6 32% 78 29.83 0.0
09 19:35 Calm 10.00 Fair CLR 80.6 37.4 21% 79 29.83 0.0
09 19:15 Calm 10.00 Fair CLR 78.8 46.4 32% 79 29.82 0.0
09 18:55 Calm 10.00 Fair CLR 82.4 42.8 25% 80 29.82 0.0
09 18:35 Calm 10.00 Fair CLR 82.4 39.2 21% 80 29.82 0.0
09 18:15 Calm 10.00 Fair CLR 82.4 41 23% 80 29.81 0.0
09 17:55 Calm 10.00 Fair CLR 84.2 41 22% 82 29.81 0.0
09 17:35 Calm 10.00 Fair CLR 84.2 41 22% 82 29.81 0.0
09 17:15 Calm 10.00 Fair CLR 84.2 35.6 18% 81 29.81 0.0
09 16:55 W 3 10.00 Fair CLR 84.2 39.2 20% 81 29.82 0.0
09 16:35 NW 6 10.00 Fair CLR 84.2 42.8 23% 82 29.81 0.0
09 16:15 Calm 10.00 Fair CLR 84.2 46.4 27% 82 29.81 0.0
09 15:55 S 5 10.00 Fair CLR 84.2 46.4 27% 82 29.82 0.0
09 15:35 Calm 10.00 Fair CLR 82.4 46.4 28% 81 29.82 0.0
09 15:15 Calm 10.00 Fair CLR 82.4 48.2 30% 81 29.82 0.0
09 14:55 Vrbl 3 10.00 Fair CLR 82.4 48.2 30% 81 29.83 0.0
09 14:35 SW 6 10.00 Fair CLR 80.6 48.2 32% 80 29.84 0.0
09 14:15 Vrbl 3 10.00 Fair CLR 80.6 50 34% 80 29.84 0.0
09 13:55 Vrbl 3 10.00 Fair CLR 78.8 53.6 42% 79 29.85 0.0
09 13:35 Calm 10.00 Fair CLR 78.8 50 37% 79 29.85 0.0
09 13:15 Calm 10.00 Fair CLR 77 48.2 36% 78 29.85 0.0
09 12:55 Calm 10.00 Fair CLR 77 51.8 42% 78 29.85 0.0
09 12:35 Calm 10.00 Fair CLR 77 51.8 42% 78 29.85 0.0
09 12:15 Vrbl 3 10.00 Fair CLR 75.2 53.6 47% 78 29.86 0.0
09 11:55 Vrbl 5 10.00 Fair CLR 75.2 55.4 50% 78 29.86 0.0
09 11:35 W 5 G 12 10.00 Fair CLR 75.2 57.2 54% 78 29.85 0.0
09 11:15 N 7 10.00 Fair CLR 75.2 57.2 54% 78 29.85 0.0
09 10:55 NE 6 10.00 Fair CLR 73.4 57.2 57% 29.85 0.0
09 10:35 Calm 10.00 Fair CLR 71.6 59 65% 29.85 0.0
09 10:15 Vrbl 3 10.00 Fair CLR 71.6 60.8 69% 29.85 0.0
09 09:55 Vrbl 5 10.00 Fair CLR 69.8 62.6 78% 29.85 0.0
09 09:35 W 7 10.00 Fair CLR 69.8 64.4 83% 29.85 0.0
09 09:15 Vrbl 6 10.00 Fair CLR 68 64.4 88% 29.85 0.0
09 08:55 W 7 10.00 Fair CLR 66.2 64.4 94% 29.85 0.0
09 08:35 W 6 10.00 Fair CLR 66.2 62.6 88% 29.84 0.0
09 08:15 W 7 10.00 Fair CLR 64.4 62.6 94% 29.84 0.0
09 07:55 NW 5 10.00 Fair CLR 62.6 62.6 100% 29.83 0.0
09 07:35 W 5 10.00 Fair CLR 60.8 60.8 100% 29.82 0.0
09 07:15 SW 5 10.00 Fair CLR 60.8 60.8 100% 29.82 0.0
09 06:55 W 6 10.00 Fair CLR 59 59 100% 29.81 0.0
09 06:35 W 5 10.00 Fair CLR 57.2 57.2 100% 29.8 0.0
09 06:15 W 6 10.00 Fair CLR 55.4 55.4 100% 29.79 0.0
09 05:55 W 6 10.00 Fair CLR 55.4 55.4 100% 29.79 0.0
09 05:35 W 6 10.00 Fair CLR 55.4 55.4 100% 29.78 0.0
09 05:15 W 5 10.00 Fair CLR 55.4 55.4 100% 29.78 0.0
09 04:55 W 6 10.00 Fair CLR 57.2 57.2 100% 29.79 0.0
09 04:35 NW 3 10.00 Fair CLR 57.2 57.2 100% 29.78 0.0
09 04:15 W 5 10.00 Fair CLR 59 59 100% 29.78 0.0
09 03:55 NW 3 10.00 Fair CLR 59 59 100% 29.79 0.0
09 03:35 NW 7 10.00 Fair CLR 59 59 100% 29.78 0.0
09 03:15 SW 7 10.00 Fair CLR 59 59 100% 29.77 0.0
09 02:55 SW 9 10.00 Fair CLR 60.8 60.8 100% 29.76 0.0
09 02:35 SW 8 10.00 Fair CLR 60.8 60.8 100% 29.77 0.0
09 02:15 SW 8 10.00 Fair CLR 60.8 60.8 100% 29.77 0.0
09 01:55 SW 12 10.00 Fair CLR 62.6 62.6 100% 29.77 0.0
09 01:35 SW 13 10.00 A Few Clouds FEW120 62.6 60.8 94% 29.78 0.0
09 01:15 SW 13 10.00 Partly Cloudy SCT120 64.4 60.8 88% 29.79 0.0
09 00:55 SW 13 G 18 10.00 Mostly Cloudy BKN120 64.4 60.8 88% 29.78 0.0
09 00:35 SW 15 10.00 Mostly Cloudy FEW070 BKN110 64.4 60.8 88% 29.79 0.0
09 00:15 S 9 G 15 10.00 Partly Cloudy FEW080 SCT110 64.4 60.8 88% 29.79 0.0
08 23:55 S 9 10.00 Fair CLR 62.6 59 88% 29.79 0.0
08 23:35 S 8 10.00 A Few Clouds FEW120 62.6 59 88% 29.8 0.0
08 23:15 S 8 10.00 Mostly Cloudy BKN110 62.6 57.2 83% 29.8 0.0
08 22:55 S 8 10.00 Fair CLR 60.8 57.2 88% 29.8 0.0
08 22:35 SW 7 10.00 Fair CLR 60.8 57.2 88% 29.82 0.0
08 22:15 W 7 10.00 Fair CLR 62.6 55.4 77% 29.82 0.0
08 21:55 SW 8 10.00 Fair CLR 64.4 53.6 68% 29.81 0.0
08 21:35 S 8 10.00 Fair CLR 64.4 51.8 64% 29.79 0.0
08 21:15 S 8 10.00 Fair CLR 64.4 51.8 64% 29.8 0.0
08 20:55 SW 9 10.00 Fair CLR 64.4 51.8 64% 29.8 0.0
08 20:35 SW 8 10.00 Fair CLR 66.2 51.8 60% 29.8 0.0
08 20:15 S 8 10.00 Fair CLR 68 50 53% 29.8 0.0
08 19:55 S 8 10.00 Fair CLR 68 50 53% 29.8 0.0
08 19:35 SW 9 10.00 Fair CLR 69.8 50 50% 29.81 0.0
08 19:15 SW 13 G 18 10.00 Fair CLR 71.6 48.2 44% 29.81 0.0
08 18:55 SW 13 G 18 10.00 Fair CLR 73.4 48.2 41% 29.82 0.0
08 18:35 SW 15 G 22 10.00 Fair CLR 75.2 48.2 39% 77 29.81 0.0
08 18:15 SW 13 10.00 Fair CLR 75.2 48.2 39% 77 29.81 0.0
08 17:55 SW 15 10.00 Fair CLR 77 48.2 36% 78 29.81 0.0
08 17:15 S 17 10.00 Fair CLR 77 48.2 36% 78 29.81 0.0
08 16:55 S 9 G 17 10.00 Fair CLR 77 46.4 34% 78 29.82 0.0
08 16:35 S 12 10.00 Fair CLR 77 46.4 34% 78 29.82 0.0
08 16:15 S 12 G 18 10.00 Fair CLR 77 48.2 36% 78 29.83 0.0
08 15:55 S 12 10.00 Fair CLR 77 48.2 36% 78 29.84 0.0
08 15:35 SW 12 G 20 10.00 Fair CLR 77 46.4 34% 78 29.84 0.0
08 15:15 SW 8 G 17 10.00 Fair CLR 77 48.2 36% 78 29.85 0.0
08 14:55 SW 12 G 18 10.00 Fair CLR 77 48.2 36% 78 29.85 0.0
08 14:35 S 13 10.00 Fair CLR 75.2 50 41% 78 29.86 0.0
08 14:15 S 13 10.00 Fair CLR 75.2 50 41% 78 29.87 0.0
08 13:55 SW 12 G 18 10.00 Fair CLR 75.2 50 41% 78 29.89 0.0
08 13:35 SW 15 10.00 Fair CLR 75.2 50 41% 78 29.91 0.0
08 13:15 S 14 G 23 10.00 Fair CLR 73.4 50 44% 29.92 0.0
08 12:55 S 10 G 20 10.00 Fair CLR 73.4 50 44% 29.92 0.0
08 12:35 SW 15 10.00 Fair CLR 73.4 50 44% 29.93 0.0
08 12:15 SW 14 G 20 10.00 Fair CLR 73.4 50 44% 29.94 0.0
08 11:55 S 12 G 18 10.00 Fair CLR 71.6 50 47% 29.95 0.0
08 11:35 S 14 G 20 10.00 Fair CLR 71.6 50 47% 29.96 0.0
08 11:15 S 13 G 20 10.00 Fair CLR 71.6 51.8 50% 29.96 0.0
08 10:55 S 10 10.00 Fair CLR 69.8 50 50% 29.97 0.0
08 10:35 S 15 10.00 Fair CLR 69.8 50 50% 29.98 0.0
08 10:15 SW 14 10.00 Fair CLR 69.8 50 50% 29.99 0.0
08 09:55 S 12 10.00 Fair CLR 68 50 53% 30 0.0
08 09:35 S 9 10.00 Fair CLR 66.2 51.8 60% 30 0.0
08 09:15 S 7 10.00 Fair CLR 64.4 53.6 68% 30 0.0
08 08:55 S 8 10.00 Fair CLR 62.6 55.4 77% 30.01 0.0
08 08:35 SW 7 10.00 Fair CLR 62.6 57.2 83% 30.01 0.0
08 08:15 S 6 10.00 Fair CLR 60.8 57.2 88% 30.01 0.0
08 07:55 S 6 9.00 Fair CLR 59 57.2 94% 30.01 0.0
08 07:35 S 5 9.00 Fair CLR 57.2 55.4 94% 30.01 0.0
08 07:15 Calm 9.00 Fair CLR 55.4 55.4 100% 30.01 0.0
08 06:55 SW 3 10.00 Fair CLR 51.8 51.8 100% 30 0.0
08 06:35 S 3 10.00 Fair CLR 50 50 100% 30 0.0
08 06:15 S 5 10.00 Fair CLR 48.2 48.2 100% 47 29.98 0.0
08 05:55 S 6 10.00 Fair CLR 48.2 48.2 100% 46 29.97 0.0
08 05:35 Calm 10.00 Fair CLR 48.2 48.2 100% 29.97 0.0
08 05:15 SW 3 10.00 Fair CLR 48.2 48.2 100% 29.97 0.0
08 04:55 Calm 10.00 Fair CLR 48.2 48.2 100% 29.98 0.0
08 04:35 Calm 10.00 Fair CLR 50 50 100% 29.98 0.0
08 04:15 Calm 10.00 Fair CLR 48.2 48.2 100% 29.98 0.0
08 03:55 S 3 10.00 Fair CLR 50 50 100% 29.98 0.0
08 03:35 Calm 10.00 Fair CLR 50 50 100% 29.98 0.0
08 03:15 Calm 10.00 Fair CLR 50 50 100% 29.98 0.0
08 02:55 Calm 10.00 Fair CLR 51.8 51.8 100% 29.99 0.0
08 02:35 Calm 10.00 Fair CLR 51.8 51.8 100% 29.99 0.0
08 02:15 Calm 10.00 Fair CLR 50 50 100% 30 0.0
08 01:55 Calm 9.00 Fair CLR 51.8 51.8 100% 30 0.0
08 01:35 Calm 10.00 Fair CLR 53.6 51.8 94% 30 0.0
08 01:15 Calm 9.00 Fair CLR 51.8 51.8 100% 30.01 0.0
08 00:55 Calm 10.00 Fair CLR 53.6 53.6 100% 30.01 0.0
08 00:35 Calm 10.00 Fair CLR 53.6 53.6 100% 30.01 0.0
08 00:15 Calm 10.00 Fair CLR 53.6 53.6 100% 30 0.0
07 23:55 S 3 10.00 Fair CLR 53.6 51.8 94% 30 0.0
07 23:35 Calm 10.00 Fair CLR 55.4 51.8 88% 30.01 0.0
07 23:15 S 6 10.00 Fair CLR 55.4 51.8 88% 30.01 0.0
07 22:55 S 6 10.00 Fair CLR 55.4 53.6 94% 30.01 0.0
07 22:35 Calm 10.00 Fair CLR 55.4 53.6 94% 30 0.0
07 22:15 SE 3 10.00 Fair CLR 55.4 53.6 94% 30.01 0.0
07 21:55 SE 5 10.00 Fair CLR 55.4 53.6 94% 30 0.0
07 21:35 SE 5 10.00 Fair CLR 55.4 51.8 88% 30 0.0
07 21:15 Calm 10.00 Fair CLR 57.2 53.6 88% 29.99 0.0
07 20:55 SE 5 10.00 Fair CLR 57.2 53.6 88% 29.98 0.0
07 20:35 SE 5 10.00 Fair CLR 57.2 53.6 88% 29.98 0.0
07 20:15 SE 3 10.00 Fair CLR 59 55.4 88% 29.98 0.0
07 19:55 SE 6 10.00 Fair CLR 60.8 51.8 72% 29.98 0.0
07 19:35 S 3 10.00 Fair CLR 64.4 39.2 40% 29.98 0.0
07 19:15 Calm 10.00 Fair CLR 66.2 41 40% 29.97 0.0
07 18:55 Calm 9.00 Fair CLR 68 39.2 35% 29.98 0.0
07 18:35 Calm 10.00 Fair CLR 68 39.2 35% 29.98 0.0
07 18:15 Calm 10.00 Fair CLR 68 39.2 35% 29.97 0.0
07 17:55 Calm 10.00 Fair CLR 68 39.2 35% 29.98 0.0
Date Time (cdt) Wind (mph) Vis. (mi.) Weather Sky Cond. Air Dwpt Max. Min. Relative Humidity Wind Chill (°F) Heat Index (°F) altimeter (in) sea level (mb) 1 hr 3 hr 6 hr
6 hour
Temperature (ºF) Pressure Precipitation (in)